Terminal Aerodrome Forecast
Issued by NWS Bismarck, ND

Home | Current Version | Previous Version | Graphics & Text | Print | Product List | Glossary On
Versions: 1 2 3 4 5 6 7 8 9 10 11 12 13 14 15 16
277
FTUS43 KBIS 191605 AAC
TAFISN
TAF AMD
KISN 191605Z 1916/2012 11005KT 5SM BR OVC005
     FM191700 11006KT P6SM SCT012
     FM191900 10008KT P6SM SCT030
     FM200100 10007KT P6SM SCT180
     FM200400 09007KT 3SM BR BKN010=

USA.gov is the U.S. government's official web portal to all federal, state and local government web resources and services.